Time;durP1;ratioP1;P1;durP2;ratioP2;P2;SDS_P1;SDS_P2;PMS_P1;PMS_P2;Temp;Humidity;BMP_temperature;BMP_pressure;BME280_temperature;BME280_humidity;BME280_pressure;Samples;Min_cycle;Max_cycle;Signal;HPM_P1;HPM_P2
2022/04/04 00:02:15;;;;;;;;;11.00;8.50;;;;;7.20;47.71;101969.91;5058807;28;45266;-51
2022/04/04 00:04:40;;;;;;;;;10.25;8.25;;;;;7.20;47.30;101964.63;5058907;28;45286;-52
2022/04/04 00:07:06;;;;;;;;;14.75;12.25;;;;;7.20;47.52;101976.03;5058508;28;45249;-52
2022/04/04 00:09:32;;;;;;;;;13.50;11.25;;;;;7.17;47.65;101973.63;5058544;28;45234;-50
2022/04/04 00:11:57;;;;;;;;;9.50;9.50;;;;;7.19;47.40;101976.16;5058751;28;45315;-53
2022/04/04 00:14:23;;;;;;;;;15.75;9.00;;;;;7.08;47.49;101958.31;5058814;28;45362;-49
2022/04/04 00:16:49;;;;;;;;;15.25;10.25;;;;;7.18;47.83;101975.31;5058260;28;47030;-52
2022/04/04 00:19:14;;;;;;;;;18.25;12.25;;;;;7.17;47.88;101976.25;5058209;28;45443;-52
2022/04/04 00:21:41;;;;;;;;;18.25;16.75;;;;;7.15;47.70;101974.63;5058477;28;45299;-50
2022/04/04 00:24:07;;;;;;;;;18.25;14.25;;;;;7.12;48.08;101973.06;5058737;28;45381;-51
2022/04/04 00:26:32;;;;;;;;;14.50;13.25;;;;;7.05;48.83;101965.56;5058103;28;46418;-52
2022/04/04 00:28:57;;;;;;;;;16.00;14.75;;;;;7.10;49.08;101972.28;5058392;28;45278;-49
2022/04/04 00:31:23;;;;;;;;;14.25;12.00;;;;;7.09;48.83;101975.88;5058477;28;45599;-52
2022/04/04 00:33:48;;;;;;;;;13.25;12.25;;;;;7.07;48.63;101969.81;5058260;28;45332;-49
2022/04/04 00:36:13;;;;;;;;;14.75;13.75;;;;;7.04;49.42;101974.44;5058100;28;46141;-51
2022/04/04 00:38:39;;;;;;;;;8.50;8.50;;;;;7.02;48.52;101960.47;5058647;28;45459;-52
2022/04/04 00:41:13;;;;;;;;;17.00;11.75;;;;;6.99;49.21;101966.78;5058250;28;45356;-52
2022/04/04 00:43:39;;;;;;;;;10.00;9.00;;;;;6.98;49.47;101965.94;5058841;28;45439;-52
2022/04/04 00:46:05;;;;;;;;;15.50;10.50;;;;;6.98;49.54;101965.94;5058375;28;47085;-53
2022/04/04 00:48:31;;;;;;;;;6.00;6.00;;;;;6.97;49.50;101955.47;5058344;28;45401;-52
2022/04/04 00:50:56;;;;;;;;;17.50;11.50;;;;;6.93;49.58;101949.50;5058495;28;45469;-52
2022/04/04 00:53:22;;;;;;;;;8.50;7.50;;;;;6.94;49.23;101960.94;5058286;28;45453;-57
2022/04/04 00:55:48;;;;;;;;;9.00;9.00;;;;;6.92;49.57;101954.91;5057849;28;45440;-52
2022/04/04 00:58:18;;;;;;;;;7.75;7.00;;;;;6.91;49.56;101955.81;5058495;28;45441;-52
2022/04/04 01:00:46;;;;;;;;;9.75;9.75;;;;;6.87;49.50;101955.19;5058607;28;45380;-53
2022/04/04 01:03:11;;;;;;;;;12.25;10.25;;;;;6.87;49.63;101956.94;5057956;27;45417;-53
2022/04/04 01:05:36;;;;;;;;;12.50;8.75;;;;;6.84;49.37;101951.88;5057084;28;46899;-49
2022/04/04 01:08:02;;;;;;;;;11.50;8.25;;;;;6.84;49.53;101959.78;5057085;28;45441;-47
2022/04/04 01:10:28;;;;;;;;;11.50;7.00;;;;;6.84;48.64;101957.16;5057959;28;45313;-48
2022/04/04 01:12:55;;;;;;;;;8.25;8.25;;;;;6.84;48.55;101954.50;5057935;28;45228;-53
2022/04/04 01:15:22;;;;;;;;;9.50;7.50;;;;;6.77;48.56;101942.59;5056198;28;47387;-49
2022/04/04 01:17:49;;;;;;;;;8.25;6.00;;;;;6.78;48.82;101944.28;5057578;28;45339;-52
2022/04/04 01:20:14;;;;;;;;;14.75;8.75;;;;;6.79;48.73;101940.72;5057393;28;45284;-50
2022/04/04 01:22:41;;;;;;;;;14.25;10.00;;;;;6.80;48.83;101947.69;5057805;28;45300;-52
2022/04/04 01:25:09;;;;;;;;;12.00;9.00;;;;;6.77;48.74;101948.72;5057707;28;45308;-53
2022/04/04 01:27:34;;;;;;;;;9.25;8.00;;;;;6.70;48.71;101937.69;5057505;28;45343;-51
2022/04/04 01:30:01;;;;;;;;;8.75;8.75;;;;;6.74;48.66;101944.50;5057947;28;45277;-56
2022/04/04 01:32:26;;;;;;;;;9.25;8.75;;;;;6.73;48.60;101940.13;5057949;28;45371;-54
2022/04/04 01:34:52;;;;;;;;;8.00;7.00;;;;;6.67;49.32;101935.22;5055747;28;45865;-52
2022/04/04 01:37:17;;;;;;;;;6.25;6.25;;;;;6.67;49.00;101935.22;5057359;28;45375;-55
2022/04/04 01:39:43;;;;;;;;;12.75;11.00;;;;;6.63;48.37;101931.06;5057503;28;45257;-54
2022/04/04 01:42:08;;;;;;;;;11.75;11.25;;;;;6.64;47.96;101931.91;5057587;28;45317;-49
2022/04/04 01:44:33;;;;;;;;;12.75;7.25;;;;;6.62;47.83;101932.00;5057925;27;46125;-55
2022/04/04 01:46:59;;;;;;;;;2.50;2.50;;;;;6.58;48.38;101925.19;5057054;28;45427;-51
2022/04/04 01:49:25;;;;;;;;;6.50;6.50;;;;;6.58;48.48;101930.47;5057081;28;45699;-51
2022/04/04 01:51:50;;;;;;;;;5.00;5.00;;;;;6.55;47.75;101927.16;5057375;28;45361;-49
2022/04/04 01:54:16;;;;;;;;;8.00;6.00;;;;;6.54;48.17;101918.38;5056700;28;46153;-52
2022/04/04 01:56:41;;;;;;;;;5.00;5.00;;;;;6.53;48.33;101918.47;5056965;28;45316;-54
2022/04/04 01:59:07;;;;;;;;;7.00;6.25;;;;;6.46;48.38;101912.72;5057143;28;45208;-61
2022/04/04 02:01:34;;;;;;;;;8.75;8.00;;;;;6.46;49.00;101924.13;5057222;28;45446;-49
2022/04/04 02:04:00;;;;;;;;;8.00;6.50;;;;;6.46;48.32;101918.84;5056537;28;46981;-49
2022/04/04 02:06:25;;;;;;;;;6.25;5.50;;;;;6.45;48.76;101914.50;5056658;28;45422;-65
2022/04/04 02:08:51;;;;;;;;;8.00;8.00;;;;;6.44;48.23;101912.78;5057074;28;45309;-49
2022/04/04 02:11:18;;;;;;;;;8.25;7.50;;;;;6.43;48.31;101907.59;5072761;28;45376;-49
2022/04/04 02:13:44;;;;;;;;;6.50;6.50;;;;;6.42;48.20;101912.03;5056397;28;46215;-49
2022/04/04 02:16:11;;;;;;;;;11.00;6.25;;;;;6.37;48.45;101894.75;5056574;28;45393;-58
2022/04/04 02:18:36;;;;;;;;;7.00;7.00;;;;;6.41;48.34;101909.50;5059350;28;45334;-62
2022/04/04 02:21:03;;;;;;;;;10.25;6.00;;;;;6.40;47.88;101905.13;5060329;28;45414;-61
2022/04/04 02:23:28;;;;;;;;;9.00;8.00;;;;;6.40;47.95;101915.69;5060145;28;47106;-55
2022/04/04 02:25:55;;;;;;;;;9.00;8.75;;;;;6.38;48.90;101899.09;5060202;28;45283;-50
2022/04/04 02:28:22;;;;;;;;;13.00;9.00;;;;;6.35;49.07;101892.19;5060415;28;45380;-51
2022/04/04 02:30:49;;;;;;;;;10.25;8.00;;;;;6.33;48.97;101890.59;5060438;28;45342;-53
2022/04/04 02:33:15;;;;;;;;;12.00;9.00;;;;;6.31;49.41;101895.97;5059866;28;46324;-57
2022/04/04 02:35:41;;;;;;;;;8.50;8.25;;;;;6.30;48.56;101898.69;5059905;28;45352;-57
2022/04/04 02:38:07;;;;;;;;;6.25;6.25;;;;;6.20;48.77;101879.91;5060042;28;45225;-54
2022/04/04 02:40:33;;;;;;;;;11.75;8.25;;;;;6.24;48.99;101894.63;5060240;28;45529;-50
2022/04/04 02:43:00;;;;;;;;;10.50;9.00;;;;;6.23;48.41;101895.56;5059926;28;45359;-57
2022/04/04 02:45:26;;;;;;;;;14.25;7.50;;;;;6.20;48.60;101899.25;5059992;28;45451;-52
2022/04/04 02:47:51;;;;;;;;;8.00;7.00;;;;;6.02;48.54;101867.75;5059784;28;45443;-63
2022/04/04 02:50:17;;;;;;;;;11.00;7.75;;;;;6.11;48.75;101877.78;5059925;28;45355;-51
2022/04/04 02:52:43;;;;;;;;;11.75;8.00;;;;;6.13;48.81;101884.69;5059846;28;45386;-52
2022/04/04 02:57:55;;;;;;;;;7.50;7.00;;;;;6.11;48.93;101889.22;5059759;28;45273;-52
2022/04/04 03:00:23;;;;;;;;;13.25;6.00;;;;;6.11;49.26;101893.63;5059899;28;45334;-50
2022/04/04 03:02:50;;;;;;;;;12.00;6.00;;;;;6.06;48.37;101885.97;5059465;28;47022;-63
2022/04/04 03:05:16;;;;;;;;;10.75;8.00;;;;;6.06;48.94;101888.63;5059412;28;45546;-50
2022/04/04 03:07:42;;;;;;;;;11.75;7.00;;;;;6.05;48.86;101884.28;5059485;28;45359;-53
2022/04/04 03:10:09;;;;;;;;;5.25;5.25;;;;;5.99;49.28;101880.22;5059914;28;45493;-47
2022/04/04 03:12:43;;;;;;;;;7.75;7.00;;;;;6.02;48.90;101881.81;5059266;28;46688;-60
2022/04/04 03:15:11;;;;;;;;;9.75;7.50;;;;;6.00;48.60;101875.78;5059446;28;45308;-64
2022/04/04 03:17:39;;;;;;;;;8.25;7.50;;;;;5.98;49.14;101878.53;5059514;28;45317;-57
2022/04/04 03:20:09;;;;;;;;;9.75;5.50;;;;;5.99;48.60;101879.38;5059525;28;45422;-54
2022/04/04 03:22:48;;;;;;;;;4.75;4.75;;;;;5.97;48.47;101873.31;5057758;28;47120;-50
2022/04/04 03:25:15;;;;;;;;;11.75;6.75;;;;;5.92;48.52;101867.44;5059443;28;45143;-50
2022/04/04 03:27:41;;;;;;;;;7.25;5.00;;;;;5.94;49.15;101874.34;5059247;28;45287;-51
2022/04/04 03:30:17;;;;;;;;;10.00;6.00;;;;;5.91;49.29;101869.22;5058531;28;45296;-61
2022/04/04 03:32:43;;;;;;;;;5.25;4.50;;;;;5.90;49.02;101864.88;5059075;28;46234;-59
2022/04/04 03:35:09;;;;;;;;;4.75;4.75;;;;;5.91;49.01;101866.56;5059238;28;45521;-61
2022/04/04 03:37:36;;;;;;;;;7.50;6.25;;;;;5.90;48.81;101862.25;5059283;28;45579;-63
2022/04/04 03:40:03;;;;;;;;;7.50;7.50;;;;;5.89;48.91;101854.38;5059576;28;45213;-58
2022/04/04 03:42:30;;;;;;;;;1.25;1.25;;;;;5.88;49.23;101847.41;5058964;28;46201;-65
2022/04/04 03:44:55;;;;;;;;;5.00;2.00;;;;;5.88;49.03;101850.91;5058947;28;45307;-52
2022/04/04 03:47:22;;;;;;;;;6.50;4.75;;;;;5.86;49.33;101849.31;5059209;28;45499;-61
2022/04/04 03:49:47;;;;;;;;;7.25;5.00;;;;;5.85;49.72;101848.44;5059343;28;45315;-58
2022/04/04 03:52:14;;;;;;;;;11.25;7.00;;;;;5.83;49.12;101839.75;5058673;28;45300;-51
2022/04/04 03:54:40;;;;;;;;;5.00;5.00;;;;;5.85;49.14;101839.66;5058688;28;45400;-55
2022/04/04 03:57:05;;;;;;;;;9.00;5.00;;;;;5.86;49.02;101830.81;5058889;28;45265;-57
2022/04/04 03:59:31;;;;;;;;;8.50;7.00;;;;;5.87;49.69;101838.66;5057847;28;45402;-63
2022/04/04 04:01:56;;;;;;;;;5.50;4.50;;;;;5.86;49.00;101825.53;5058762;28;45318;-61
2022/04/04 04:04:22;;;;;;;;;7.00;7.00;;;;;5.85;49.75;101832.59;5057621;28;45436;-64
2022/04/04 04:06:47;;;;;;;;;7.25;4.25;;;;;5.66;50.30;101800.28;5058454;28;45411;-63
2022/04/04 04:09:13;;;;;;;;;6.25;6.25;;;;;5.74;50.01;101812.09;5058836;28;45351;-62
2022/04/04 04:11:38;;;;;;;;;6.00;6.00;;;;;5.83;50.00;101833.63;5058629;28;46035;-50
2022/04/04 04:14:05;;;;;;;;;4.75;4.50;;;;;5.84;49.79;101828.25;5058418;28;45269;-52
2022/04/04 04:16:30;;;;;;;;;12.50;7.50;;;;;5.80;50.35;101820.59;5058536;28;45363;-51
2022/04/04 04:18:56;;;;;;;;;11.00;9.25;;;;;5.82;49.83;101824.88;5058719;28;45365;-52
2022/04/04 04:21:22;;;;;;;;;8.25;7.75;;;;;5.74;49.63;101809.47;5058015;28;46123;-62
2022/04/04 04:23:47;;;;;;;;;13.00;8.25;;;;;5.76;50.10;101818.13;5058511;28;45340;-60
2022/04/04 04:26:14;;;;;;;;;11.75;9.25;;;;;5.78;50.04;101806.66;5058416;28;45754;-60
2022/04/04 04:28:40;;;;;;;;;7.75;7.75;;;;;5.72;49.33;101808.69;5058654;28;45328;-51
2022/04/04 04:31:06;;;;;;;;;8.00;8.00;;;;;5.76;50.01;101818.13;5058131;28;45310;-51
2022/04/04 04:33:32;;;;;;;;;7.00;7.00;;;;;5.63;50.07;101793.38;5058230;28;45297;-51
2022/04/04 04:36:00;;;;;;;;;10.75;8.00;;;;;5.69;49.51;101800.97;5058599;28;45390;-53
2022/04/04 04:38:26;;;;;;;;;10.25;10.00;;;;;5.72;49.62;101807.84;5058428;28;45490;-58
2022/04/04 04:40:52;;;;;;;;;11.00;10.00;;;;;5.66;50.15;101802.94;5057869;28;47203;-58
2022/04/04 04:43:17;;;;;;;;;10.75;10.00;;;;;5.69;49.67;101808.88;5058117;28;45403;-49
2022/04/04 04:45:43;;;;;;;;;8.00;8.00;;;;;5.66;49.21;101798.50;5058124;28;45288;-64
2022/04/04 04:48:08;;;;;;;;;14.75;10.00;;;;;5.66;49.75;101798.50;5058308;28;45346;-56
2022/04/04 04:50:34;;;;;;;;;16.75;9.25;;;;;5.63;50.66;101793.38;5057736;28;46215;-54
2022/04/04 04:52:59;;;;;;;;;18.75;11.25;;;;;5.61;50.71;101789.16;5057855;28;45421;-51
2022/04/04 04:55:25;;;;;;;;;11.25;10.75;;;;;5.60;50.07;101801.47;5057932;28;45322;-49
2022/04/04 04:57:53;;;;;;;;;14.00;11.25;;;;;5.59;49.76;101796.28;5058148;28;45219;-52
2022/04/04 05:00:22;;;;;;;;;11.75;10.25;;;;;5.59;50.13;101799.78;5057687;28;46089;-51
2022/04/04 05:03:24;;;;;;;;;12.50;12.00;;;;;5.50;51.14;101781.84;5057660;28;45470;-51
2022/04/04 05:05:36;;;;;;;;;11.75;11.50;;;;;5.55;51.67;101792.97;5057648;28;45379;-59
2022/04/04 05:08:01;;;;;;;;;16.25;12.00;;;;;5.54;50.40;101793.94;5057585;28;45549;-57
2022/04/04 05:10:26;;;;;;;;;14.00;11.00;;;;;5.54;50.16;101798.34;5057737;28;45991;-58
2022/04/04 05:12:52;;;;;;;;;9.75;8.50;;;;;5.55;50.24;101797.41;5057589;28;45408;-54
2022/04/04 05:15:17;;;;;;;;;10.75;10.75;;;;;5.52;50.55;101795.81;5057884;28;45427;-61
2022/04/04 05:17:42;;;;;;;;;13.00;13.00;;;;;5.50;50.06;101795.03;5056733;28;45843;-57
2022/04/04 05:20:08;;;;;;;;;16.25;11.50;;;;;5.51;51.12;101799.38;5057759;28;46329;-58
2022/04/04 05:22:35;;;;;;;;;18.50;11.50;;;;;5.49;51.07;101798.63;5057368;28;45345;-59
2022/04/04 05:25:00;;;;;;;;;15.50;12.00;;;;;5.47;50.47;101797.84;5057558;28;45326;-63
2022/04/04 05:27:26;;;;;;;;;17.00;8.75;;;;;5.50;51.44;101800.31;5057668;27;45305;-63
2022/04/04 05:29:51;;;;;;;;;21.75;14.25;;;;;5.51;50.41;101788.81;5057285;28;46156;-54
2022/04/04 05:32:17;;;;;;;;;16.75;9.50;;;;;5.50;50.82;101797.69;5057321;28;45526;-51
2022/04/04 05:34:42;;;;;;;;;18.25;14.00;;;;;5.52;50.67;101793.19;5057541;28;45375;-52
2022/04/04 05:37:07;;;;;;;;;22.25;15.25;;;;;5.53;51.33;101794.88;5057601;28;45340;-51
2022/04/04 05:39:33;;;;;;;;;13.50;13.50;;;;;5.50;51.56;101789.75;5057134;28;46159;-52
2022/04/04 05:41:58;;;;;;;;;15.50;11.75;;;;;5.54;51.51;101791.28;5057177;28;45403;-49
2022/04/04 05:44:25;;;;;;;;;18.50;13.00;;;;;5.56;51.00;101792.03;5057355;28;45393;-51
2022/04/04 05:46:50;;;;;;;;;16.50;15.00;;;;;5.58;51.28;101794.59;5057539;28;45324;-62
2022/04/04 05:49:16;;;;;;;;;15.00;12.00;;;;;5.59;50.53;101791.88;5057156;28;45919;-61
2022/04/04 05:51:41;;;;;;;;;10.00;9.50;;;;;5.60;50.44;101798.84;5058154;28;45242;-51
2022/04/04 05:54:07;;;;;;;;;16.25;13.00;;;;;5.61;50.60;101795.28;5056971;28;45362;-61
2022/04/04 05:56:33;;;;;;;;;16.50;14.00;;;;;5.62;51.27;101796.97;5058669;28;45423;-65
2022/04/04 05:58:58;;;;;;;;;16.25;11.50;;;;;5.62;50.24;101796.97;5058214;28;46190;-55
2022/04/04 06:01:23;;;;;;;;;12.00;12.00;;;;;5.64;50.27;101797.72;5058965;28;45273;-55
2022/04/04 06:03:50;;;;;;;;;15.00;13.00;;;;;5.66;50.57;101800.28;5057545;28;45240;-56
2022/04/04 06:06:15;;;;;;;;;16.25;11.00;;;;;5.67;50.56;101797.56;5057225;27;45304;-62
2022/04/04 06:08:41;;;;;;;;;19.50;15.00;;;;;5.66;51.03;101787.94;5055195;28;45578;-67
2022/04/04 06:11:06;;;;;;;;;15.75;12.50;;;;;5.71;51.38;101795.59;5056794;28;45290;-49
2022/04/04 06:13:32;;;;;;;;;13.50;11.50;;;;;5.75;50.71;101786.56;5056933;28;45387;-62
2022/04/04 06:15:57;;;;;;;;;14.00;10.50;;;;;5.81;50.53;101795.88;5057048;28;45304;-51
2022/04/04 06:18:22;;;;;;;;;17.75;14.00;;;;;5.86;50.61;101791.22;5056753;28;45381;-53
2022/04/04 06:20:48;;;;;;;;;13.00;13.00;;;;;5.87;50.31;101777.91;5056562;28;45379;-54
2022/04/04 06:23:14;;;;;;;;;15.50;11.00;;;;;5.90;50.38;101776.84;5056729;28;45593;-54
2022/04/04 06:25:41;;;;;;;;;14.50;13.75;;;;;5.91;49.84;101782.06;5056935;28;45239;-54
2022/04/04 06:28:07;;;;;;;;;15.25;12.00;;;;;5.93;49.43;101782.00;5056577;28;46127;-63
2022/04/04 06:30:34;;;;;;;;;15.00;12.00;;;;;5.92;49.28;101782.94;5056581;28;45186;-61
2022/04/04 06:32:59;;;;;;;;;13.25;11.25;;;;;5.93;49.43;101776.72;5055964;28;45233;-49
2022/04/04 06:35:25;;;;;;;;;9.50;9.25;;;;;5.94;48.84;101770.47;5056675;28;45494;-50
2022/04/04 06:37:52;;;;;;;;;9.00;8.50;;;;;5.90;48.98;101774.22;5056437;28;47185;-55
2022/04/04 06:40:17;;;;;;;;;14.00;10.50;;;;;5.92;48.71;101765.31;5056349;28;45340;-62
2022/04/04 06:42:44;;;;;;;;;10.50;10.00;;;;;5.94;48.80;101779.28;5056365;28;45384;-57
2022/04/04 06:45:11;;;;;;;;;11.75;10.50;;;;;5.97;48.61;101776.44;5056645;28;45365;-65
2022/04/04 06:47:37;;;;;;;;;16.00;11.50;;;;;5.99;48.78;101779.84;5056215;28;46959;-63
2022/04/04 06:50:05;;;;;;;;;14.75;9.75;;;;;6.01;48.05;101766.53;5056178;28;45219;-58
2022/04/04 06:52:30;;;;;;;;;17.75;10.25;;;;;6.04;47.38;101770.81;5056600;28;45385;-48
2022/04/04 06:54:56;;;;;;;;;9.75;9.00;;;;;6.02;47.54;101768.22;5056049;28;45588;-49
2022/04/04 06:57:22;;;;;;;;;9.25;8.00;;;;;6.01;47.51;101763.91;5054857;28;46178;-52
2022/04/04 06:59:48;;;;;;;;;9.50;8.75;;;;;6.00;47.17;101754.28;5056450;28;45257;-64
2022/04/04 07:02:13;;;;;;;;;14.75;10.50;;;;;6.14;47.08;101770.13;5056246;28;45545;-52
2022/04/04 07:04:40;;;;;;;;;18.75;11.50;;;;;6.21;47.51;101760.06;5057296;28;45375;-49
2022/04/04 07:07:06;;;;;;;;;9.00;9.00;;;;;6.28;46.97;101763.16;5059569;28;47072;-63
2022/04/04 07:09:32;;;;;;;;;16.75;12.00;;;;;6.40;46.48;101757.13;5059484;28;45249;-55
2022/04/04 07:11:57;;;;;;;;;14.50;14.25;;;;;6.52;46.15;101739.66;5059808;28;45246;-51
2022/04/04 07:14:24;;;;;;;;;16.75;14.25;;;;;6.71;46.35;101741.06;5059893;28;45365;-56
2022/04/04 07:16:52;;;;;;;;;11.75;11.75;;;;;7.08;44.91;101748.41;5059512;28;46247;-49
2022/04/04 07:19:22;;;;;;;;;15.00;11.50;;;;;8.23;43.11;101750.34;5059664;28;45443;-52
2022/04/04 07:21:52;;;;;;;;;15.25;8.00;;;;;9.64;40.78;101716.19;5059562;28;45471;-52
2022/04/04 07:24:18;;;;;;;;;14.75;10.00;;;;;10.76;39.28;101733.22;5059742;28;45303;-56
2022/04/04 07:26:43;;;;;;;;;14.50;10.00;;;;;11.01;37.44;101724.91;5059372;28;45456;-51
2022/04/04 07:29:09;;;;;;;;;10.00;9.00;;;;;11.35;36.94;101722.97;5059090;28;45275;-53
2022/04/04 07:31:36;;;;;;;;;19.75;9.00;;;;;11.56;36.53;101701.69;5059405;28;45344;-53
2022/04/04 07:34:02;;;;;;;;;16.00;10.00;;;;;12.10;35.93;101719.31;5059552;28;45346;-54
2022/04/04 07:36:28;;;;;;;;;3.67;3.67;;;;;12.31;36.69;101671.22;5057753;28;47173;-52
2022/04/04 07:38:53;;;;;;;;;7.00;5.00;;;;;13.13;33.17;101705.66;5059041;28;45256;-52
2022/04/04 07:41:20;;;;;;;;;8.67;6.00;;;;;13.98;32.77;101704.03;5057666;28;45870;-49
2022/04/04 07:43:45;;;;;;;;;7.33;5.00;;;;;15.20;30.27;101702.00;5059506;28;45287;-52
2022/04/04 07:46:11;;;;;;;;;3.00;3.00;;;;;16.20;28.95;101692.69;5057719;28;47256;-57
2022/04/04 07:48:38;;;;;;;;;3.67;3.67;;;;;17.10;28.23;101691.13;5059040;28;45388;-52
2022/04/04 07:51:03;;;;;;;;;5.67;3.00;;;;;17.76;26.34;101685.78;5059052;28;45283;-49
2022/04/04 07:53:29;;;;;;;;;4.00;4.00;;;;;18.12;26.62;101681.66;5059080;28;45381;-52
2022/04/04 07:55:54;;;;;;;;;4.00;2.00;;;;;17.58;25.86;101680.56;5058477;28;45859;-52
2022/04/04 07:58:20;;;;;;;;;7.00;3.67;;;;;17.43;26.50;101677.69;5058710;28;45401;-52
2022/04/04 08:00:45;;;;;;;;;4.67;4.00;;;;;18.29;25.72;101666.28;5058892;28;45297;-50
2022/04/04 08:03:11;;;;;;;;;5.00;5.00;;;;;18.97;25.40;101670.13;5058989;28;45313;-50
2022/04/04 08:05:36;;;;;;;;;22.00;15.33;;;;;19.88;23.38;101669.16;5058556;28;47125;-52
2022/04/04 08:08:02;;;;;;;;;28.33;26.67;;;;;20.75;23.22;101671.16;5058649;28;45427;-54
2022/04/04 08:10:27;;;;;;;;;13.00;8.67;;;;;21.19;20.81;101659.31;5058550;28;45348;-53
2022/04/04 08:12:53;;;;;;;;;7.00;7.00;;;;;21.76;21.27;101657.50;5058993;28;45427;-51
2022/04/04 08:15:19;;;;;;;;;5.00;4.00;;;;;22.01;20.92;101664.13;5058090;28;45316;-54
2022/04/04 08:17:44;;;;;;;;;4.67;4.00;;;;;22.40;20.01;101649.94;5058457;28;45246;-53
2022/04/04 08:20:10;;;;;;;;;6.00;4.33;;;;;22.97;20.02;101663.28;5058700;28;45218;-53
2022/04/04 08:22:39;;;;;;;;;4.33;4.33;;;;;;;;5058790;28;45389;-53
2022/04/04 08:25:06;;;;;;;;;4.33;4.33;;;;;23.69;19.02;101654.34;5058124;28;45466;-52
2022/04/04 08:27:31;;;;;;;;;5.25;5.25;;;;;23.72;19.26;101643.03;5058429;28;45391;-54
2022/04/04 08:29:56;;;;;;;;;5.00;3.00;;;;;23.63;20.21;101642.38;5058437;28;45280;-53
2022/04/04 08:32:22;;;;;;;;;4.00;3.75;;;;;23.62;18.88;101637.19;5058569;28;45347;-54
2022/04/04 08:34:47;;;;;;;;;6.50;4.00;;;;;23.04;18.81;101651.38;5058157;28;46000;-52
2022/04/04 08:37:12;;;;;;;;;4.75;3.75;;;;;22.86;19.19;101632.97;5058292;28;45307;-50
2022/04/04 08:39:38;;;;;;;;;6.00;5.00;;;;;23.09;19.28;101634.47;5058411;28;45832;-55
2022/04/04 08:42:03;;;;;;;;;6.75;5.25;;;;;23.62;20.68;101638.00;5058322;28;45840;-55
2022/04/04 08:44:29;;;;;;;;;5.00;5.00;;;;;23.64;18.94;101629.66;5058085;28;45471;-52
2022/04/04 08:46:54;;;;;;;;;3.00;2.00;;;;;23.60;19.59;101625.69;5057891;28;45336;-53
2022/04/04 08:49:20;;;;;;;;;7.50;5.00;;;;;23.48;18.85;101633.66;5058008;28;45696;-53
2022/04/04 08:51:48;;;;;;;;;4.00;3.75;;;;;22.96;19.55;101605.44;5058433;28;45282;-52
2022/04/04 08:54:13;;;;;;;;;5.00;5.00;;;;;22.47;20.06;101559.69;5057633;28;46039;-52
2022/04/04 08:56:38;;;;;;;;;5.50;4.25;;;;;22.19;20.53;101619.41;5057636;28;45403;-50
2022/04/04 08:59:04;;;;;;;;;6.00;4.25;;;;;21.80;21.48;101618.16;5058063;28;45322;-54
2022/04/04 09:01:29;;;;;;;;;4.00;4.00;;;;;21.67;20.57;101616.22;5058084;28;45309;-54
2022/04/04 09:04:03;;;;;;;;;3.75;3.75;;;;;21.73;22.31;101615.41;5057811;28;45453;-53
2022/04/04 09:06:29;;;;;;;;;3.75;3.75;;;;;22.02;20.69;101622.44;5057658;28;45481;-52
2022/04/04 09:08:56;;;;;;;;;3.50;3.50;;;;;22.27;21.67;101611.13;5057909;28;45324;-50
2022/04/04 09:11:22;;;;;;;;;5.50;2.75;;;;;22.37;20.73;101590.69;5057687;28;45510;-56
2022/04/04 09:14:08;;;;;;;;;2.75;2.75;;;;;22.55;20.96;101608.28;5057518;28;46010;-57
2022/04/04 09:16:37;;;;;;;;;2.25;1.50;;;;;22.56;19.20;101605.38;5057277;28;45281;-52
2022/04/04 09:19:03;;;;;;;;;3.00;3.00;;;;;22.84;20.63;101594.38;5057662;28;45333;-51
2022/04/04 09:21:33;;;;;;;;;3.25;3.00;;;;;23.54;20.13;101580.38;5057844;28;45425;-61
2022/04/04 09:24:02;;;;;;;;;1.00;1.00;;;;;25.19;17.25;101586.03;5057341;28;46074;-52
2022/04/04 09:26:48;;;;;;;;;2.00;2.00;;;;;26.37;15.98;101586.59;5056990;28;45363;-57
2022/04/04 09:29:20;;;;;;;;;2.00;2.00;;;;;28.22;14.60;101589.09;5057242;28;45426;-52
2022/04/04 09:32:03;;;;;;;;;2.25;2.25;;;;;29.13;15.95;101586.38;5057646;28;45388;-54
2022/04/04 09:34:28;;;;;;;;;4.20;2.60;;;;;30.40;13.80;101562.56;5057082;28;47418;-57
2022/04/04 09:36:54;;;;;;;;;3.00;2.00;;;;;30.57;14.34;101555.84;5057124;28;45245;-51
2022/04/04 09:39:20;;;;;;;;;2.00;1.00;;;;;30.17;13.91;101575.50;5057452;28;45298;-51
2022/04/04 09:41:45;;;;;;;;;3.00;2.00;;;;;30.61;15.45;101563.56;5057462;28;45398;-54
2022/04/04 09:44:13;;;;;;;;;2.75;2.75;;;;;31.48;13.52;101548.59;5056894;28;46022;-55
2022/04/04 09:46:42;;;;;;;;;3.40;1.80;;;;;32.26;11.88;101554.94;5057171;28;45404;-52
2022/04/04 09:49:13;;;;;;;;;3.20;2.00;;;;;31.79;12.98;101560.56;5057284;28;45433;-53
2022/04/04 09:51:38;;;;;;;;;2.80;2.80;;;;;32.07;12.90;101548.31;5056215;28;45442;-52
2022/04/04 09:54:07;;;;;;;;;2.25;2.25;;;;;33.01;11.27;101540.72;5056628;28;46082;-53
2022/04/04 09:56:32;;;;;;;;;3.80;3.00;;;;;34.64;11.21;101530.84;5056816;28;45320;-53
2022/04/04 09:59:03;;;;;;;;;2.00;2.00;;;;;34.72;11.23;101533.00;5057144;28;45325;-53
2022/04/04 10:01:32;;;;;;;;;4.00;3.00;;;;;33.94;10.29;101522.75;5057276;28;45478;-52
2022/04/04 10:04:00;;;;;;;;;4.00;4.00;;;;;32.63;11.52;101520.88;5056750;28;47058;-53
2022/04/04 10:06:30;;;;;;;;;2.40;1.80;;;;;31.88;12.02;101538.88;5056751;28;45250;-54
2022/04/04 10:08:58;;;;;;;;;2.20;2.20;;;;;32.08;13.04;101535.38;5057019;28;45309;-62
2022/04/04 10:11:24;;;;;;;;;2.80;2.80;;;;;33.57;10.54;101531.47;5056744;28;45214;-51
2022/04/04 10:13:52;;;;;;;;;4.00;2.40;;;;;35.09;9.66;101514.97;5056790;28;46061;-56
2022/04/04 10:16:18;;;;;;;;;2.40;2.40;;;;;36.28;9.90;101524.25;5056750;28;45395;-51
2022/04/04 10:18:44;;;;;;;;;8.00;8.00;;;;;37.00;8.74;101512.81;5056947;28;45335;-53
2022/04/04 10:21:13;;;;;;;;;7.40;4.00;;;;;36.92;9.02;101504.09;5057004;28;45462;-53
2022/04/04 10:23:41;;;;;;;;;3.40;3.00;;;;;37.02;8.37;101496.69;5056658;28;46512;-62
2022/04/04 10:26:07;;;;;;;;;2.60;2.60;;;;;37.71;9.63;101511.38;5056852;28;45837;-53
2022/04/04 10:28:38;;;;;;;;;2.80;1.80;;;;;38.27;7.75;101500.94;5056719;28;45466;-55
2022/04/04 10:31:13;;;;;;;;;1.80;1.80;;;;;38.86;9.10;101496.13;5057063;28;45319;-54
2022/04/04 10:33:39;;;;;;;;;1.80;1.80;;;;;39.03;8.54;101479.50;5056540;28;45996;-56
2022/04/04 10:36:06;;;;;;;;;1.50;1.50;;;;;38.10;8.37;101488.56;5056562;28;45332;-56
2022/04/04 10:38:54;;;;;;;;;3.00;1.40;;;;;37.74;9.87;101477.44;5057164;28;45792;-50
2022/04/04 10:41:22;;;;;;;;;3.60;2.80;;;;;38.16;8.52;101475.38;5060355;28;45433;-54
2022/04/04 10:43:52;;;;;;;;;3.60;3.60;;;;;37.55;8.08;101477.59;5059955;28;46397;-53
2022/04/04 10:46:22;;;;;;;;;4.00;2.40;;;;;36.06;9.63;101469.47;5059946;28;45436;-53
2022/04/04 10:48:49;;;;;;;;;1.40;1.40;;;;;35.79;8.65;101470.16;5060037;28;45297;-51
2022/04/04 10:51:20;;;;;;;;;3.00;3.00;;;;;36.04;10.23;101477.28;5060215;28;45376;-52
2022/04/04 10:53:51;;;;;;;;;1.60;1.60;;;;;36.79;8.75;101465.19;5059746;28;46156;-53
2022/04/04 10:56:40;;;;;;;;;4.60;2.20;;;;;36.90;8.82;101459.16;5059423;28;45183;-52
2022/04/04 10:59:15;;;;;;;;;0.60;0.60;;;;;35.87;9.79;101450.09;5037408;28;45397;-56
2022/04/04 11:01:42;;;;;;;;;3.40;1.80;;;;;34.70;9.49;101449.56;5037445;28;45282;-56
2022/04/04 11:04:23;;;;;;;;;2.00;2.00;;;;;35.09;9.67;101448.63;5036877;28;47251;-54
2022/04/04 11:09:46;;;;;;;;;5.00;3.00;;;;;32.10;10.66;101443.16;5037162;28;45465;-61
2022/04/04 11:12:13;;;;;;;;;2.60;2.60;;;;;30.53;11.04;101439.41;5037300;28;45381;-58
2022/04/04 11:14:42;;;;;;;;;2.80;2.80;;;;;30.09;11.81;101436.00;5036964;28;45385;-50
2022/04/04 11:17:23;;;;;;;;;3.40;3.40;;;;;30.53;11.47;101439.41;5037137;28;45476;-51
2022/04/04 11:20:01;;;;;;;;;3.00;3.00;;;;;29.12;12.72;101426.66;5037117;28;45289;-52
2022/04/04 11:22:29;;;;;;;;;3.00;3.00;;;;;27.22;12.70;101420.81;5037148;28;45423;-53
2022/04/04 11:25:05;;;;;;;;;4.40;3.00;;;;;26.16;14.28;101425.38;5036439;28;45412;-61
2022/04/04 11:27:33;;;;;;;;;3.80;3.00;;;;;25.25;14.27;101419.06;5036591;28;45553;-61
2022/04/04 11:30:10;;;;;;;;;4.40;4.00;;;;;24.50;14.53;101408.28;5037068;28;45406;-56
2022/04/04 11:32:40;;;;;;;;;2.80;2.80;;;;;23.74;15.43;101412.75;5037044;28;45514;-50